createdAt,value
2022-11-03T06:49:30.036Z,4.28
2022-11-03T06:52:35.035Z,4.85
2022-11-03T06:55:38.897Z,4.40
2022-11-03T06:58:41.473Z,3.80
2022-11-03T07:01:46.083Z,3.65
2022-11-03T07:04:47.838Z,3.50
2022-11-03T07:07:52.318Z,3.67
2022-11-03T07:11:02.725Z,3.33
2022-11-03T07:14:15.223Z,3.50
2022-11-03T07:17:21.972Z,3.25
2022-11-03T07:20:23.817Z,3.58
2022-11-03T07:23:29.461Z,4.78
2022-11-03T07:26:33.291Z,2.88
2022-11-03T07:29:34.959Z,3.63
2022-11-03T07:32:36.676Z,4.25
2022-11-03T07:36:13.132Z,3.95
2022-11-03T07:39:04.231Z,3.92
2022-11-03T07:42:23.419Z,4.25
2022-11-03T07:45:49.587Z,4.13
2022-11-03T07:48:57.863Z,3.65
2022-11-03T07:51:59.996Z,4.10
2022-11-03T07:55:01.973Z,3.35
2022-11-03T07:58:19.201Z,3.05
2022-11-03T08:01:27.711Z,3.35
2022-11-03T08:04:35.350Z,2.90
2022-11-03T08:07:37.072Z,2.97
2022-11-03T08:10:38.727Z,3.22
2022-11-03T08:13:41.018Z,3.30
2022-11-03T08:16:42.834Z,3.75
2022-11-03T08:19:44.506Z,3.15
2022-11-03T08:23:05.074Z,3.53
2022-11-03T08:26:08.567Z,2.95
2022-11-03T08:29:10.299Z,3.30
2022-11-03T08:32:11.980Z,4.18
2022-11-03T08:35:13.919Z,3.92
2022-11-03T08:38:15.989Z,3.33
2022-11-03T08:41:17.766Z,3.83
2022-11-03T08:44:19.461Z,4.10
2022-11-03T08:47:21.379Z,4.15
2022-11-03T08:50:23.435Z,3.35
2022-11-03T08:53:27.040Z,3.70
2022-11-03T08:56:28.761Z,3.78
2022-11-03T08:59:30.479Z,3.13
2022-11-03T09:02:32.763Z,3.00
2022-11-03T09:05:34.694Z,3.20
2022-11-03T09:11:58.006Z,3.63
2022-11-03T09:14:59.956Z,3.22
2022-11-03T09:18:01.868Z,3.15
2022-11-03T09:21:03.698Z,2.97
2022-11-03T09:24:05.866Z,2.78
2022-11-03T09:27:07.611Z,2.70
2022-11-03T09:30:14.158Z,3.80
2022-11-03T09:33:16.408Z,2.88
2022-11-03T09:36:18.061Z,3.13
2022-11-03T09:39:19.764Z,3.30
2022-11-03T09:42:22.238Z,3.35
2022-11-03T09:45:23.979Z,3.22
2022-11-03T09:48:26.601Z,3.70
2022-11-03T09:51:28.961Z,3.40
2022-11-03T09:54:31.390Z,3.08
2022-11-03T09:57:33.097Z,2.92
2022-11-03T10:00:34.957Z,2.60
2022-11-03T10:03:36.673Z,2.55
2022-11-03T10:06:39.192Z,2.55
2022-11-03T10:09:46.295Z,2.28
2022-11-03T10:12:49.911Z,2.70
2022-11-03T10:15:51.633Z,2.90
2022-11-03T10:18:53.569Z,2.70
2022-11-03T10:21:55.371Z,2.88
2022-11-03T10:25:36.972Z,4.25
2022-11-03T10:28:38.914Z,2.83
2022-11-03T10:31:41.949Z,2.83
2022-11-03T10:34:43.668Z,3.33
2022-11-03T10:37:45.351Z,3.00
2022-11-03T10:40:48.317Z,2.50
2022-11-03T10:44:11.381Z,2.40
2022-11-03T10:47:34.267Z,2.50
2022-11-03T10:50:36.094Z,2.17
2022-11-03T10:53:38.049Z,2.60
2022-11-03T10:56:39.962Z,2.47
2022-11-03T10:59:42.525Z,2.70
2022-11-03T11:02:46.174Z,2.10
2022-11-03T11:05:48.683Z,2.40
2022-11-03T11:08:59.643Z,2.60
2022-11-03T11:12:14.833Z,2.20
2022-11-03T11:15:39.762Z,2.65
2022-11-03T11:18:42.344Z,2.60
2022-11-03T11:21:44.167Z,3.10
2022-11-03T11:24:45.927Z,2.58
2022-11-03T11:27:58.279Z,2.40
2022-11-03T11:31:00.529Z,2.13
2022-11-03T11:34:09.789Z,1.98
2022-11-03T11:37:32.433Z,2.20
2022-11-03T11:40:34.147Z,2.20
2022-11-03T11:43:36.025Z,2.33
2022-11-03T11:46:41.050Z,2.20
2022-11-03T11:49:42.852Z,2.17
2022-11-03T11:52:49.938Z,2.30
2022-11-03T11:55:56.092Z,2.35
2022-11-03T11:58:57.935Z,2.60
2022-11-03T12:02:00.208Z,2.40
2022-11-03T12:05:03.720Z,2.38
2022-11-03T12:08:18.783Z,2.15
2022-11-03T12:11:45.793Z,2.53
2022-11-03T12:14:49.038Z,2.65
2022-11-03T12:17:50.717Z,2.55
2022-11-03T12:20:52.486Z,3.13
2022-11-03T12:23:54.206Z,2.45
2022-11-03T12:26:56.077Z,3.38
2022-11-03T12:30:00.060Z,2.63
2022-11-03T12:33:01.852Z,3.08
2022-11-03T12:36:03.684Z,2.67
2022-11-03T12:39:05.831Z,2.80
2022-11-03T12:42:09.246Z,2.72
2022-11-03T12:45:13.599Z,2.95
2022-11-03T12:48:15.519Z,2.75
2022-11-03T12:51:19.835Z,2.92
2022-11-03T12:54:22.806Z,2.60
2022-11-03T12:57:24.900Z,3.30
2022-11-03T13:00:26.924Z,2.85
2022-11-03T13:03:29.079Z,3.20
2022-11-03T13:06:30.963Z,2.78
2022-11-03T13:09:32.822Z,3.55
2022-11-03T13:12:41.200Z,3.38
2022-11-03T13:15:42.887Z,3.53
2022-11-03T13:18:44.685Z,3.00
2022-11-03T13:21:46.393Z,4.07
2022-11-03T13:24:48.143Z,3.42
2022-11-03T13:27:53.885Z,3.25
2022-11-03T13:30:56.023Z,3.22
2022-11-03T13:33:57.691Z,2.92
2022-11-03T13:36:59.493Z,2.55
2022-11-03T13:40:01.198Z,2.83
2022-11-03T13:43:03.089Z,3.13
2022-11-03T13:46:05.218Z,2.75
2022-11-03T13:52:29.102Z,2.85
2022-11-03T13:55:46.045Z,2.60
2022-11-03T14:05:34.033Z,2.30
2022-11-03T14:08:35.828Z,2.53
2022-11-03T14:11:57.724Z,2.42
2022-11-03T14:15:02.032Z,2.80
2022-11-03T14:18:03.852Z,3.20
2022-11-03T14:21:05.663Z,2.45
2022-11-03T14:24:07.614Z,2.60
2022-11-03T14:27:09.432Z,2.67
2022-11-03T14:30:12.421Z,2.60
2022-11-03T14:33:14.217Z,2.67
2022-11-03T14:36:16.206Z,2.75
2022-11-03T14:39:17.909Z,3.00
2022-11-03T14:42:19.950Z,2.88
2022-11-03T14:45:21.742Z,3.38
2022-11-03T14:48:23.559Z,3.38
2022-11-03T14:51:25.215Z,2.90
2022-11-03T14:54:27.547Z,2.95
2022-11-03T14:57:29.208Z,3.53
2022-11-03T15:00:30.879Z,3.75
2022-11-03T15:03:32.577Z,3.47
2022-11-03T15:06:35.292Z,3.55
2022-11-03T15:09:36.970Z,3.78
2022-11-03T15:12:38.685Z,3.03
2022-11-03T15:15:41.550Z,3.72
2022-11-03T15:18:44.624Z,3.47
2022-11-03T15:21:46.315Z,3.83
2022-11-03T15:28:11.533Z,3.58
2022-11-03T15:31:13.362Z,3.10
2022-11-03T15:34:15.503Z,2.97
2022-11-03T15:37:17.190Z,3.30
2022-11-03T15:40:18.902Z,3.00
2022-11-03T15:43:20.787Z,4.00
2022-11-03T15:46:22.607Z,3.15
2022-11-03T15:49:24.632Z,3.45
2022-11-03T15:52:26.330Z,3.78
2022-11-03T15:55:28.275Z,3.53
2022-11-03T15:58:33.850Z,3.25
2022-11-03T16:01:35.802Z,3.20
2022-11-03T16:04:37.621Z,3.53
2022-11-03T16:07:40.100Z,4.05
2022-11-03T16:10:48.807Z,3.35
2022-11-03T16:13:53.673Z,3.40
2022-11-03T16:16:56.634Z,3.50
2022-11-03T16:19:58.602Z,3.70
2022-11-03T16:23:00.316Z,3.15
2022-11-03T16:26:04.429Z,3.85
2022-11-03T16:29:06.076Z,3.40
2022-11-03T16:32:07.922Z,3.58
2022-11-03T16:35:10.054Z,3.60
2022-11-03T16:38:13.591Z,4.35
2022-11-03T16:41:15.443Z,4.13
2022-11-03T16:44:17.175Z,3.60
2022-11-03T16:47:18.850Z,4.63
2022-11-03T16:50:20.862Z,3.85
2022-11-03T16:53:22.520Z,4.10
2022-11-03T16:56:24.311Z,4.10
2022-11-03T16:59:26.465Z,4.07
